sensor_id;sensor_type;location;lat;lon;timestamp;P1;durP1;ratioP1;P2;durP2;ratioP2
10432;SDS011;5263;48.680;9.004;2023-08-20T00:00:08;7.23;;;6.63;;
10432;SDS011;5263;48.680;9.004;2023-08-20T00:02:35;9.57;;;6.70;;
10432;SDS011;5263;48.680;9.004;2023-08-20T00:05:02;8.03;;;7.20;;
10432;SDS011;5263;48.680;9.004;2023-08-20T00:07:29;10.10;;;7.90;;
10432;SDS011;5263;48.680;9.004;2023-08-20T00:09:58;8.00;;;6.37;;
10432;SDS011;5263;48.680;9.004;2023-08-20T00:12:24;9.33;;;8.37;;
10432;SDS011;5263;48.680;9.004;2023-08-20T00:14:52;6.43;;;5.93;;
10432;SDS011;5263;48.680;9.004;2023-08-20T00:17:21;7.10;;;6.47;;
10432;SDS011;5263;48.680;9.004;2023-08-20T00:19:49;7.83;;;7.07;;
10432;SDS011;5263;48.680;9.004;2023-08-20T00:22:15;7.20;;;6.63;;
10432;SDS011;5263;48.680;9.004;2023-08-20T00:24:41;6.67;;;6.07;;
10432;SDS011;5263;48.680;9.004;2023-08-20T00:27:07;8.10;;;7.40;;
10432;SDS011;5263;48.680;9.004;2023-08-20T00:29:33;10.50;;;7.33;;
10432;SDS011;5263;48.680;9.004;2023-08-20T00:31:59;7.80;;;7.13;;
10432;SDS011;5263;48.680;9.004;2023-08-20T00:34:24;7.97;;;7.00;;
10432;SDS011;5263;48.680;9.004;2023-08-20T00:36:50;7.60;;;6.90;;
10432;SDS011;5263;48.680;9.004;2023-08-20T00:39:15;7.90;;;7.17;;
10432;SDS011;5263;48.680;9.004;2023-08-20T00:41:41;9.03;;;8.23;;
10432;SDS011;5263;48.680;9.004;2023-08-20T00:44:06;8.03;;;7.23;;
10432;SDS011;5263;48.680;9.004;2023-08-20T00:46:32;9.23;;;8.43;;
10432;SDS011;5263;48.680;9.004;2023-08-20T00:48:57;8.10;;;7.37;;
10432;SDS011;5263;48.680;9.004;2023-08-20T00:51:23;7.90;;;6.93;;
10432;SDS011;5263;48.680;9.004;2023-08-20T00:53:49;7.77;;;7.17;;
10432;SDS011;5263;48.680;9.004;2023-08-20T00:56:15;8.43;;;7.83;;
10432;SDS011;5263;48.680;9.004;2023-08-20T00:58:41;8.07;;;7.30;;
10432;SDS011;5263;48.680;9.004;2023-08-20T01:01:07;8.97;;;8.13;;
10432;SDS011;5263;48.680;9.004;2023-08-20T01:03:33;8.63;;;7.93;;
10432;SDS011;5263;48.680;9.004;2023-08-20T01:06:02;8.70;;;8.00;;
10432;SDS011;5263;48.680;9.004;2023-08-20T01:08:42;8.30;;;7.07;;
10432;SDS011;5263;48.680;9.004;2023-08-20T01:11:18;7.90;;;7.03;;
10432;SDS011;5263;48.680;9.004;2023-08-20T01:13:54;8.00;;;7.20;;
10432;SDS011;5263;48.680;9.004;2023-08-20T01:16:20;9.87;;;7.93;;
10432;SDS011;5263;48.680;9.004;2023-08-20T01:18:47;8.07;;;7.47;;
10432;SDS011;5263;48.680;9.004;2023-08-20T01:27:00;12.70;;;8.53;;
10432;SDS011;5263;48.680;9.004;2023-08-20T01:29:30;9.33;;;8.63;;
10432;SDS011;5263;48.680;9.004;2023-08-20T01:31:57;9.17;;;8.37;;
10432;SDS011;5263;48.680;9.004;2023-08-20T01:34:23;10.47;;;9.47;;
10432;SDS011;5263;48.680;9.004;2023-08-20T01:36:49;10.90;;;9.80;;
10432;SDS011;5263;48.680;9.004;2023-08-20T01:39:14;9.80;;;8.83;;
10432;SDS011;5263;48.680;9.004;2023-08-20T01:41:40;10.33;;;9.40;;
10432;SDS011;5263;48.680;9.004;2023-08-20T01:44:06;11.57;;;8.80;;
10432;SDS011;5263;48.680;9.004;2023-08-20T01:46:32;10.10;;;9.30;;
10432;SDS011;5263;48.680;9.004;2023-08-20T01:48:57;7.97;;;7.37;;
10432;SDS011;5263;48.680;9.004;2023-08-20T01:51:23;9.73;;;8.83;;
10432;SDS011;5263;48.680;9.004;2023-08-20T01:53:49;10.03;;;9.13;;
10432;SDS011;5263;48.680;9.004;2023-08-20T01:56:14;9.87;;;8.87;;
10432;SDS011;5263;48.680;9.004;2023-08-20T01:58:41;9.23;;;8.40;;
10432;SDS011;5263;48.680;9.004;2023-08-20T02:01:06;10.10;;;8.97;;
10432;SDS011;5263;48.680;9.004;2023-08-20T02:03:32;9.10;;;8.30;;
10432;SDS011;5263;48.680;9.004;2023-08-20T02:05:57;8.57;;;7.87;;
10432;SDS011;5263;48.680;9.004;2023-08-20T02:08:23;9.23;;;8.33;;
10432;SDS011;5263;48.680;9.004;2023-08-20T02:10:49;9.07;;;8.33;;
10432;SDS011;5263;48.680;9.004;2023-08-20T02:13:14;10.63;;;9.57;;
10432;SDS011;5263;48.680;9.004;2023-08-20T02:15:40;9.17;;;8.30;;
10432;SDS011;5263;48.680;9.004;2023-08-20T02:18:05;8.80;;;7.97;;
10432;SDS011;5263;48.680;9.004;2023-08-20T02:20:31;9.00;;;8.23;;
10432;SDS011;5263;48.680;9.004;2023-08-20T02:22:56;9.20;;;8.50;;
10432;SDS011;5263;48.680;9.004;2023-08-20T02:25:23;9.70;;;8.73;;
10432;SDS011;5263;48.680;9.004;2023-08-20T02:27:49;9.67;;;8.57;;
10432;SDS011;5263;48.680;9.004;2023-08-20T02:30:16;9.33;;;8.47;;
10432;SDS011;5263;48.680;9.004;2023-08-20T02:32:41;10.37;;;9.47;;
10432;SDS011;5263;48.680;9.004;2023-08-20T02:35:07;10.07;;;8.37;;
10432;SDS011;5263;48.680;9.004;2023-08-20T02:37:33;10.90;;;9.20;;
10432;SDS011;5263;48.680;9.004;2023-08-20T02:39:58;8.70;;;7.90;;
10432;SDS011;5263;48.680;9.004;2023-08-20T02:42:24;10.07;;;9.13;;
10432;SDS011;5263;48.680;9.004;2023-08-20T02:44:49;9.30;;;8.60;;
10432;SDS011;5263;48.680;9.004;2023-08-20T02:47:15;11.40;;;8.27;;
10432;SDS011;5263;48.680;9.004;2023-08-20T02:49:40;8.77;;;7.87;;
10432;SDS011;5263;48.680;9.004;2023-08-20T02:52:06;9.50;;;8.37;;
10432;SDS011;5263;48.680;9.004;2023-08-20T02:54:31;9.00;;;8.30;;
10432;SDS011;5263;48.680;9.004;2023-08-20T02:56:58;8.80;;;7.80;;
10432;SDS011;5263;48.680;9.004;2023-08-20T02:59:23;8.97;;;8.13;;
10432;SDS011;5263;48.680;9.004;2023-08-20T03:01:49;10.50;;;9.43;;
10432;SDS011;5263;48.680;9.004;2023-08-20T03:04:15;11.17;;;10.07;;
10432;SDS011;5263;48.680;9.004;2023-08-20T03:06:40;10.47;;;9.47;;
10432;SDS011;5263;48.680;9.004;2023-08-20T03:09:06;11.17;;;10.13;;
10432;SDS011;5263;48.680;9.004;2023-08-20T03:11:31;15.73;;;10.27;;
10432;SDS011;5263;48.680;9.004;2023-08-20T03:13:57;10.60;;;9.60;;
10432;SDS011;5263;48.680;9.004;2023-08-20T03:16:22;13.33;;;10.10;;
10432;SDS011;5263;48.680;9.004;2023-08-20T03:18:48;10.70;;;9.70;;
10432;SDS011;5263;48.680;9.004;2023-08-20T03:21:13;10.13;;;9.17;;
10432;SDS011;5263;48.680;9.004;2023-08-20T03:23:39;12.27;;;8.77;;
10432;SDS011;5263;48.680;9.004;2023-08-20T03:26:04;10.17;;;9.17;;
10432;SDS011;5263;48.680;9.004;2023-08-20T03:28:30;11.47;;;9.77;;
10432;SDS011;5263;48.680;9.004;2023-08-20T03:30:58;10.27;;;9.43;;
10432;SDS011;5263;48.680;9.004;2023-08-20T03:33:26;9.97;;;9.17;;
10432;SDS011;5263;48.680;9.004;2023-08-20T03:35:51;8.90;;;8.27;;
10432;SDS011;5263;48.680;9.004;2023-08-20T03:38:17;10.33;;;9.33;;
10432;SDS011;5263;48.680;9.004;2023-08-20T03:40:42;10.23;;;8.27;;
10432;SDS011;5263;48.680;9.004;2023-08-20T03:43:10;9.93;;;9.07;;
10432;SDS011;5263;48.680;9.004;2023-08-20T03:45:35;8.50;;;7.67;;
10432;SDS011;5263;48.680;9.004;2023-08-20T03:48:01;9.03;;;8.30;;
10432;SDS011;5263;48.680;9.004;2023-08-20T03:50:26;13.10;;;8.50;;
10432;SDS011;5263;48.680;9.004;2023-08-20T03:52:52;11.53;;;9.87;;
10432;SDS011;5263;48.680;9.004;2023-08-20T03:55:17;10.47;;;9.47;;
10432;SDS011;5263;48.680;9.004;2023-08-20T03:57:43;11.07;;;8.83;;
10432;SDS011;5263;48.680;9.004;2023-08-20T04:00:09;10.43;;;9.03;;
10432;SDS011;5263;48.680;9.004;2023-08-20T04:02:35;10.83;;;7.70;;
10432;SDS011;5263;48.680;9.004;2023-08-20T04:05:00;9.63;;;8.83;;
10432;SDS011;5263;48.680;9.004;2023-08-20T04:07:26;9.63;;;8.73;;
10432;SDS011;5263;48.680;9.004;2023-08-20T04:09:52;10.83;;;9.73;;
10432;SDS011;5263;48.680;9.004;2023-08-20T04:12:17;11.90;;;10.90;;
10432;SDS011;5263;48.680;9.004;2023-08-20T04:14:43;9.83;;;8.97;;
10432;SDS011;5263;48.680;9.004;2023-08-20T04:17:08;13.53;;;10.57;;
10432;SDS011;5263;48.680;9.004;2023-08-20T04:19:34;11.60;;;10.43;;
10432;SDS011;5263;48.680;9.004;2023-08-20T04:21:59;11.77;;;10.73;;
10432;SDS011;5263;48.680;9.004;2023-08-20T04:24:25;10.63;;;9.80;;
10432;SDS011;5263;48.680;9.004;2023-08-20T04:26:51;10.17;;;9.37;;
10432;SDS011;5263;48.680;9.004;2023-08-20T04:29:16;10.97;;;10.07;;
10432;SDS011;5263;48.680;9.004;2023-08-20T04:31:42;10.63;;;9.80;;
10432;SDS011;5263;48.680;9.004;2023-08-20T04:34:07;11.17;;;10.07;;
10432;SDS011;5263;48.680;9.004;2023-08-20T04:36:33;12.17;;;9.87;;
10432;SDS011;5263;48.680;9.004;2023-08-20T04:38:58;10.30;;;9.53;;
10432;SDS011;5263;48.680;9.004;2023-08-20T04:41:24;13.10;;;10.20;;
10432;SDS011;5263;48.680;9.004;2023-08-20T04:43:49;10.03;;;9.17;;
10432;SDS011;5263;48.680;9.004;2023-08-20T04:46:15;15.00;;;9.30;;
10432;SDS011;5263;48.680;9.004;2023-08-20T04:48:41;10.20;;;9.50;;
10432;SDS011;5263;48.680;9.004;2023-08-20T04:51:06;9.17;;;8.43;;
10432;SDS011;5263;48.680;9.004;2023-08-20T04:53:32;8.87;;;8.17;;
10432;SDS011;5263;48.680;9.004;2023-08-20T04:55:58;11.40;;;10.03;;
10432;SDS011;5263;48.680;9.004;2023-08-20T04:58:24;11.33;;;10.30;;
10432;SDS011;5263;48.680;9.004;2023-08-20T05:00:49;11.27;;;10.10;;
10432;SDS011;5263;48.680;9.004;2023-08-20T05:03:15;12.33;;;10.50;;
10432;SDS011;5263;48.680;9.004;2023-08-20T05:05:41;15.17;;;11.73;;
10432;SDS011;5263;48.680;9.004;2023-08-20T05:08:06;11.70;;;10.53;;
10432;SDS011;5263;48.680;9.004;2023-08-20T05:10:35;10.17;;;9.27;;
10432;SDS011;5263;48.680;9.004;2023-08-20T05:13:01;10.97;;;10.13;;
10432;SDS011;5263;48.680;9.004;2023-08-20T05:15:26;11.13;;;10.13;;
10432;SDS011;5263;48.680;9.004;2023-08-20T05:17:52;9.67;;;8.97;;
10432;SDS011;5263;48.680;9.004;2023-08-20T05:20:18;9.27;;;8.60;;
10432;SDS011;5263;48.680;9.004;2023-08-20T05:22:43;9.90;;;9.00;;
10432;SDS011;5263;48.680;9.004;2023-08-20T05:25:09;8.93;;;8.23;;
10432;SDS011;5263;48.680;9.004;2023-08-20T05:27:34;9.67;;;8.87;;
10432;SDS011;5263;48.680;9.004;2023-08-20T05:30:00;9.30;;;8.10;;
10432;SDS011;5263;48.680;9.004;2023-08-20T05:32:25;10.67;;;8.00;;
10432;SDS011;5263;48.680;9.004;2023-08-20T05:34:51;9.53;;;8.43;;
10432;SDS011;5263;48.680;9.004;2023-08-20T05:37:16;9.63;;;8.60;;
10432;SDS011;5263;48.680;9.004;2023-08-20T05:39:43;9.07;;;8.13;;
10432;SDS011;5263;48.680;9.004;2023-08-20T05:42:09;8.13;;;7.37;;
10432;SDS011;5263;48.680;9.004;2023-08-20T05:44:35;9.43;;;8.13;;
10432;SDS011;5263;48.680;9.004;2023-08-20T05:47:01;10.07;;;9.13;;
10432;SDS011;5263;48.680;9.004;2023-08-20T05:49:27;10.20;;;9.33;;
10432;SDS011;5263;48.680;9.004;2023-08-20T05:51:52;10.50;;;9.40;;
10432;SDS011;5263;48.680;9.004;2023-08-20T05:54:18;10.00;;;7.67;;
10432;SDS011;5263;48.680;9.004;2023-08-20T05:56:44;10.60;;;9.70;;
10432;SDS011;5263;48.680;9.004;2023-08-20T05:59:09;9.90;;;8.87;;
10432;SDS011;5263;48.680;9.004;2023-08-20T06:01:35;9.07;;;8.30;;
10432;SDS011;5263;48.680;9.004;2023-08-20T06:04:00;11.93;;;9.33;;
10432;SDS011;5263;48.680;9.004;2023-08-20T06:06:26;9.20;;;8.30;;
10432;SDS011;5263;48.680;9.004;2023-08-20T06:08:52;9.40;;;8.00;;
10432;SDS011;5263;48.680;9.004;2023-08-20T06:11:19;9.40;;;8.43;;
10432;SDS011;5263;48.680;9.004;2023-08-20T06:13:45;9.43;;;8.53;;
10432;SDS011;5263;48.680;9.004;2023-08-20T06:16:11;10.70;;;8.27;;
10432;SDS011;5263;48.680;9.004;2023-08-20T06:18:37;8.60;;;7.20;;
10432;SDS011;5263;48.680;9.004;2023-08-20T06:21:02;7.83;;;7.03;;
10432;SDS011;5263;48.680;9.004;2023-08-20T06:23:29;7.73;;;7.07;;
10432;SDS011;5263;48.680;9.004;2023-08-20T06:25:54;7.47;;;6.97;;
10432;SDS011;5263;48.680;9.004;2023-08-20T06:28:21;7.37;;;6.83;;
10432;SDS011;5263;48.680;9.004;2023-08-20T06:30:47;10.13;;;7.90;;
10432;SDS011;5263;48.680;9.004;2023-08-20T06:33:12;9.03;;;8.33;;
10432;SDS011;5263;48.680;9.004;2023-08-20T06:35:38;8.50;;;7.77;;
10432;SDS011;5263;48.680;9.004;2023-08-20T06:38:04;8.63;;;8.00;;
10432;SDS011;5263;48.680;9.004;2023-08-20T06:40:30;8.67;;;7.97;;
10432;SDS011;5263;48.680;9.004;2023-08-20T06:42:56;10.80;;;8.20;;
10432;SDS011;5263;48.680;9.004;2023-08-20T06:45:21;8.57;;;7.77;;
10432;SDS011;5263;48.680;9.004;2023-08-20T06:47:47;9.03;;;8.23;;
10432;SDS011;5263;48.680;9.004;2023-08-20T06:50:12;8.17;;;7.37;;
10432;SDS011;5263;48.680;9.004;2023-08-20T06:52:38;8.43;;;7.63;;
10432;SDS011;5263;48.680;9.004;2023-08-20T06:55:04;7.70;;;6.87;;
10432;SDS011;5263;48.680;9.004;2023-08-20T06:57:29;7.80;;;7.20;;
10432;SDS011;5263;48.680;9.004;2023-08-20T06:59:55;9.17;;;8.20;;
10432;SDS011;5263;48.680;9.004;2023-08-20T07:02:21;8.83;;;8.03;;
10432;SDS011;5263;48.680;9.004;2023-08-20T07:04:46;8.50;;;7.80;;
10432;SDS011;5263;48.680;9.004;2023-08-20T07:07:12;7.87;;;7.07;;
10432;SDS011;5263;48.680;9.004;2023-08-20T07:09:37;8.40;;;7.50;;
10432;SDS011;5263;48.680;9.004;2023-08-20T07:12:04;9.10;;;7.63;;
10432;SDS011;5263;48.680;9.004;2023-08-20T07:14:30;8.73;;;7.50;;
10432;SDS011;5263;48.680;9.004;2023-08-20T07:16:55;8.40;;;7.03;;
10432;SDS011;5263;48.680;9.004;2023-08-20T07:19:21;8.93;;;8.00;;
10432;SDS011;5263;48.680;9.004;2023-08-20T07:21:47;8.50;;;7.70;;
10432;SDS011;5263;48.680;9.004;2023-08-20T07:24:12;11.13;;;7.80;;
10432;SDS011;5263;48.680;9.004;2023-08-20T07:26:38;9.90;;;7.50;;
10432;SDS011;5263;48.680;9.004;2023-08-20T07:29:04;10.53;;;7.87;;
10432;SDS011;5263;48.680;9.004;2023-08-20T07:31:30;9.33;;;8.27;;
10432;SDS011;5263;48.680;9.004;2023-08-20T07:33:57;7.80;;;7.20;;
10432;SDS011;5263;48.680;9.004;2023-08-20T07:36:24;8.23;;;7.17;;
10432;SDS011;5263;48.680;9.004;2023-08-20T07:38:51;9.73;;;8.10;;
10432;SDS011;5263;48.680;9.004;2023-08-20T07:41:17;9.63;;;8.77;;
10432;SDS011;5263;48.680;9.004;2023-08-20T07:43:44;8.93;;;8.13;;
10432;SDS011;5263;48.680;9.004;2023-08-20T07:46:10;11.23;;;7.70;;
10432;SDS011;5263;48.680;9.004;2023-08-20T07:48:36;9.37;;;8.67;;
10432;SDS011;5263;48.680;9.004;2023-08-20T07:51:02;7.83;;;7.23;;
10432;SDS011;5263;48.680;9.004;2023-08-20T07:53:29;7.80;;;6.83;;
10432;SDS011;5263;48.680;9.004;2023-08-20T07:55:55;8.63;;;7.93;;
10432;SDS011;5263;48.680;9.004;2023-08-20T07:58:21;8.57;;;7.57;;
10432;SDS011;5263;48.680;9.004;2023-08-20T08:00:47;8.73;;;7.93;;
10432;SDS011;5263;48.680;9.004;2023-08-20T08:03:12;9.40;;;8.30;;
10432;SDS011;5263;48.680;9.004;2023-08-20T08:05:40;9.37;;;8.67;;
10432;SDS011;5263;48.680;9.004;2023-08-20T08:08:06;9.70;;;8.80;;
10432;SDS011;5263;48.680;9.004;2023-08-20T08:10:31;9.03;;;7.93;;
10432;SDS011;5263;48.680;9.004;2023-08-20T08:12:57;8.00;;;7.30;;
10432;SDS011;5263;48.680;9.004;2023-08-20T08:15:22;8.00;;;7.30;;
10432;SDS011;5263;48.680;9.004;2023-08-20T08:17:48;10.10;;;7.57;;
10432;SDS011;5263;48.680;9.004;2023-08-20T08:20:13;8.50;;;7.70;;
10432;SDS011;5263;48.680;9.004;2023-08-20T08:22:39;11.60;;;7.53;;
10432;SDS011;5263;48.680;9.004;2023-08-20T08:25:05;8.70;;;7.40;;
10432;SDS011;5263;48.680;9.004;2023-08-20T08:27:30;7.93;;;7.13;;
10432;SDS011;5263;48.680;9.004;2023-08-20T08:29:56;7.87;;;6.17;;
10432;SDS011;5263;48.680;9.004;2023-08-20T08:32:22;10.10;;;7.47;;
10432;SDS011;5263;48.680;9.004;2023-08-20T08:34:47;8.00;;;7.23;;
10432;SDS011;5263;48.680;9.004;2023-08-20T08:37:13;9.00;;;6.93;;
10432;SDS011;5263;48.680;9.004;2023-08-20T08:39:40;7.93;;;7.03;;
10432;SDS011;5263;48.680;9.004;2023-08-20T08:42:05;8.00;;;6.23;;
10432;SDS011;5263;48.680;9.004;2023-08-20T08:44:32;8.57;;;6.25;;
10432;SDS011;5263;48.680;9.004;2023-08-20T08:46:58;7.80;;;7.10;;
10432;SDS011;5263;48.680;9.004;2023-08-20T08:49:24;6.22;;;5.75;;
10432;SDS011;5263;48.680;9.004;2023-08-20T08:51:51;6.10;;;5.65;;
10432;SDS011;5263;48.680;9.004;2023-08-20T08:54:18;7.03;;;6.32;;
10432;SDS011;5263;48.680;9.004;2023-08-20T08:56:45;7.68;;;6.50;;
10432;SDS011;5263;48.680;9.004;2023-08-20T08:59:10;7.20;;;6.50;;
10432;SDS011;5263;48.680;9.004;2023-08-20T09:01:40;5.43;;;5.00;;
10432;SDS011;5263;48.680;9.004;2023-08-20T09:04:06;7.00;;;5.13;;
10432;SDS011;5263;48.680;9.004;2023-08-20T09:06:48;6.55;;;5.57;;
10432;SDS011;5263;48.680;9.004;2023-08-20T09:09:16;5.68;;;5.30;;
10432;SDS011;5263;48.680;9.004;2023-08-20T09:11:42;6.05;;;5.07;;
10432;SDS011;5263;48.680;9.004;2023-08-20T09:14:16;8.50;;;5.45;;
10432;SDS011;5263;48.680;9.004;2023-08-20T09:16:59;5.68;;;5.18;;
10432;SDS011;5263;48.680;9.004;2023-08-20T09:19:29;5.28;;;4.88;;
10432;SDS011;5263;48.680;9.004;2023-08-20T09:22:02;5.00;;;4.60;;
10432;SDS011;5263;48.680;9.004;2023-08-20T09:24:38;7.13;;;5.35;;
10432;SDS011;5263;48.680;9.004;2023-08-20T09:27:04;5.20;;;4.72;;
10432;SDS011;5263;48.680;9.004;2023-08-20T09:29:43;6.72;;;5.50;;
10432;SDS011;5263;48.680;9.004;2023-08-20T09:32:09;5.63;;;5.20;;
10432;SDS011;5263;48.680;9.004;2023-08-20T09:34:39;7.57;;;5.80;;
10432;SDS011;5263;48.680;9.004;2023-08-20T09:37:08;6.03;;;5.07;;
10432;SDS011;5263;48.680;9.004;2023-08-20T09:39:38;7.63;;;5.80;;
10432;SDS011;5263;48.680;9.004;2023-08-20T09:42:04;6.53;;;6.10;;
10432;SDS011;5263;48.680;9.004;2023-08-20T09:44:34;7.78;;;5.70;;
10432;SDS011;5263;48.680;9.004;2023-08-20T09:47:06;6.38;;;5.93;;
10432;SDS011;5263;48.680;9.004;2023-08-20T09:49:36;6.68;;;4.90;;
10432;SDS011;5263;48.680;9.004;2023-08-20T09:52:16;6.20;;;5.75;;
10432;SDS011;5263;48.680;9.004;2023-08-20T09:57:47;4.75;;;4.32;;
10432;SDS011;5263;48.680;9.004;2023-08-20T10:00:13;6.82;;;4.90;;
10432;SDS011;5263;48.680;9.004;2023-08-20T10:02:42;5.00;;;4.60;;
10432;SDS011;5263;48.680;9.004;2023-08-20T10:05:09;7.03;;;4.75;;
10432;SDS011;5263;48.680;9.004;2023-08-20T10:07:35;5.03;;;4.72;;
10432;SDS011;5263;48.680;9.004;2023-08-20T10:10:05;4.50;;;4.20;;
10432;SDS011;5263;48.680;9.004;2023-08-20T10:12:38;4.72;;;4.32;;
10432;SDS011;5263;48.680;9.004;2023-08-20T10:15:05;5.15;;;4.72;;
10432;SDS011;5263;48.680;9.004;2023-08-20T10:17:33;6.35;;;4.45;;
10432;SDS011;5263;48.680;9.004;2023-08-20T10:20:00;5.05;;;4.57;;
10432;SDS011;5263;48.680;9.004;2023-08-20T10:22:40;4.85;;;3.88;;
10432;SDS011;5263;48.680;9.004;2023-08-20T10:25:11;6.63;;;4.22;;
10432;SDS011;5263;48.680;9.004;2023-08-20T10:27:46;6.55;;;4.05;;
10432;SDS011;5263;48.680;9.004;2023-08-20T10:30:16;6.43;;;4.05;;
10432;SDS011;5263;48.680;9.004;2023-08-20T10:32:53;4.90;;;4.50;;
10432;SDS011;5263;48.680;9.004;2023-08-20T10:35:26;5.70;;;3.72;;
10432;SDS011;5263;48.680;9.004;2023-08-20T10:38:03;6.43;;;4.55;;
10432;SDS011;5263;48.680;9.004;2023-08-20T10:43:31;4.28;;;3.88;;
10432;SDS011;5263;48.680;9.004;2023-08-20T10:48:46;6.25;;;3.60;;
10432;SDS011;5263;48.680;9.004;2023-08-20T10:51:24;5.40;;;4.07;;
10432;SDS011;5263;48.680;9.004;2023-08-20T10:59:09;7.53;;;4.38;;
10432;SDS011;5263;48.680;9.004;2023-08-20T11:01:45;4.55;;;4.15;;
10432;SDS011;5263;48.680;9.004;2023-08-20T11:04:16;5.75;;;4.25;;
10432;SDS011;5263;48.680;9.004;2023-08-20T11:06:42;4.63;;;3.30;;
10432;SDS011;5263;48.680;9.004;2023-08-20T11:09:09;4.25;;;3.83;;
10432;SDS011;5263;48.680;9.004;2023-08-20T11:11:36;8.35;;;5.03;;
10432;SDS011;5263;48.680;9.004;2023-08-20T11:14:04;3.80;;;3.38;;
10432;SDS011;5263;48.680;9.004;2023-08-20T11:16:41;3.80;;;3.50;;
10432;SDS011;5263;48.680;9.004;2023-08-20T11:19:08;3.53;;;3.22;;
10432;SDS011;5263;48.680;9.004;2023-08-20T11:21:34;4.72;;;3.67;;
10432;SDS011;5263;48.680;9.004;2023-08-20T11:24:01;5.53;;;4.10;;
10432;SDS011;5263;48.680;9.004;2023-08-20T11:26:26;3.85;;;3.55;;
10432;SDS011;5263;48.680;9.004;2023-08-20T11:28:52;6.57;;;4.10;;
10432;SDS011;5263;48.680;9.004;2023-08-20T11:31:18;4.65;;;4.05;;
10432;SDS011;5263;48.680;9.004;2023-08-20T11:33:44;11.98;;;4.43;;
10432;SDS011;5263;48.680;9.004;2023-08-20T11:36:10;5.75;;;3.72;;
10432;SDS011;5263;48.680;9.004;2023-08-20T11:38:36;5.30;;;4.85;;
10432;SDS011;5263;48.680;9.004;2023-08-20T11:41:01;6.97;;;2.95;;
10432;SDS011;5263;48.680;9.004;2023-08-20T11:43:27;3.70;;;3.47;;
10432;SDS011;5263;48.680;9.004;2023-08-20T11:45:53;6.18;;;3.78;;
10432;SDS011;5263;48.680;9.004;2023-08-20T11:48:19;5.70;;;4.32;;
10432;SDS011;5263;48.680;9.004;2023-08-20T11:50:51;9.35;;;4.13;;
10432;SDS011;5263;48.680;9.004;2023-08-20T11:53:21;5.30;;;3.90;;
10432;SDS011;5263;48.680;9.004;2023-08-20T11:55:48;4.55;;;4.22;;
10432;SDS011;5263;48.680;9.004;2023-08-20T11:58:14;5.47;;;3.30;;
10432;SDS011;5263;48.680;9.004;2023-08-20T12:00:39;4.85;;;3.80;;
10432;SDS011;5263;48.680;9.004;2023-08-20T12:03:06;5.47;;;4.10;;
10432;SDS011;5263;48.680;9.004;2023-08-20T12:05:34;4.25;;;3.95;;
10432;SDS011;5263;48.680;9.004;2023-08-20T12:08:03;4.97;;;4.47;;
10432;SDS011;5263;48.680;9.004;2023-08-20T12:10:30;5.90;;;3.97;;
10432;SDS011;5263;48.680;9.004;2023-08-20T12:12:57;4.88;;;4.47;;
10432;SDS011;5263;48.680;9.004;2023-08-20T12:15:23;4.93;;;3.30;;
10432;SDS011;5263;48.680;9.004;2023-08-20T12:20:21;4.82;;;3.58;;
10432;SDS011;5263;48.680;9.004;2023-08-20T12:22:47;4.18;;;3.78;;
10432;SDS011;5263;48.680;9.004;2023-08-20T12:25:12;3.35;;;3.15;;
10432;SDS011;5263;48.680;9.004;2023-08-20T12:27:38;5.45;;;3.65;;
10432;SDS011;5263;48.680;9.004;2023-08-20T12:30:04;4.00;;;3.47;;
10432;SDS011;5263;48.680;9.004;2023-08-20T12:32:30;4.00;;;3.60;;
10432;SDS011;5263;48.680;9.004;2023-08-20T12:34:55;4.18;;;3.88;;
10432;SDS011;5263;48.680;9.004;2023-08-20T12:37:21;3.55;;;3.33;;
10432;SDS011;5263;48.680;9.004;2023-08-20T12:39:46;4.85;;;3.80;;
10432;SDS011;5263;48.680;9.004;2023-08-20T12:42:12;3.53;;;3.30;;
10432;SDS011;5263;48.680;9.004;2023-08-20T12:44:37;3.97;;;3.65;;
10432;SDS011;5263;48.680;9.004;2023-08-20T12:47:03;3.95;;;3.60;;
10432;SDS011;5263;48.680;9.004;2023-08-20T12:49:29;4.10;;;3.80;;
10432;SDS011;5263;48.680;9.004;2023-08-20T12:51:54;4.40;;;4.00;;
10432;SDS011;5263;48.680;9.004;2023-08-20T12:54:20;3.75;;;3.55;;
10432;SDS011;5263;48.680;9.004;2023-08-20T12:56:45;5.88;;;3.60;;
10432;SDS011;5263;48.680;9.004;2023-08-20T12:59:11;4.38;;;4.15;;
10432;SDS011;5263;48.680;9.004;2023-08-20T13:01:36;5.93;;;4.15;;
10432;SDS011;5263;48.680;9.004;2023-08-20T13:04:02;3.88;;;3.67;;
10432;SDS011;5263;48.680;9.004;2023-08-20T13:06:29;6.53;;;3.78;;
10432;SDS011;5263;48.680;9.004;2023-08-20T13:08:54;4.30;;;3.47;;
10432;SDS011;5263;48.680;9.004;2023-08-20T13:11:20;4.80;;;3.58;;
10432;SDS011;5263;48.680;9.004;2023-08-20T13:13:50;5.47;;;4.22;;
10432;SDS011;5263;48.680;9.004;2023-08-20T13:16:18;8.73;;;4.25;;
10432;SDS011;5263;48.680;9.004;2023-08-20T13:18:44;4.18;;;3.85;;
10432;SDS011;5263;48.680;9.004;2023-08-20T13:21:10;5.18;;;4.00;;
10432;SDS011;5263;48.680;9.004;2023-08-20T13:23:36;8.90;;;4.63;;
10432;SDS011;5263;48.680;9.004;2023-08-20T13:26:02;5.35;;;4.28;;
10432;SDS011;5263;48.680;9.004;2023-08-20T13:28:28;4.00;;;3.70;;
10432;SDS011;5263;48.680;9.004;2023-08-20T13:30:53;4.00;;;3.55;;
10432;SDS011;5263;48.680;9.004;2023-08-20T13:33:19;5.85;;;4.05;;
10432;SDS011;5263;48.680;9.004;2023-08-20T13:35:45;6.50;;;4.22;;
10432;SDS011;5263;48.680;9.004;2023-08-20T13:38:11;5.90;;;4.13;;
10432;SDS011;5263;48.680;9.004;2023-08-20T13:40:36;5.78;;;4.00;;
10432;SDS011;5263;48.680;9.004;2023-08-20T13:43:02;4.00;;;3.67;;
10432;SDS011;5263;48.680;9.004;2023-08-20T13:45:28;4.22;;;3.83;;
10432;SDS011;5263;48.680;9.004;2023-08-20T13:47:53;4.28;;;3.88;;
10432;SDS011;5263;48.680;9.004;2023-08-20T13:50:19;5.40;;;3.28;;
10432;SDS011;5263;48.680;9.004;2023-08-20T13:52:44;3.38;;;3.17;;
10432;SDS011;5263;48.680;9.004;2023-08-20T13:55:10;4.40;;;4.00;;
10432;SDS011;5263;48.680;9.004;2023-08-20T13:57:36;7.25;;;3.22;;
10432;SDS011;5263;48.680;9.004;2023-08-20T14:00:01;4.60;;;3.90;;
10432;SDS011;5263;48.680;9.004;2023-08-20T14:02:33;4.30;;;4.00;;
10432;SDS011;5263;48.680;9.004;2023-08-20T14:04:58;4.10;;;3.80;;
10432;SDS011;5263;48.680;9.004;2023-08-20T14:07:24;5.85;;;4.28;;
10432;SDS011;5263;48.680;9.004;2023-08-20T14:09:50;3.90;;;3.70;;
10432;SDS011;5263;48.680;9.004;2023-08-20T14:12:15;4.75;;;3.83;;
10432;SDS011;5263;48.680;9.004;2023-08-20T14:14:41;3.83;;;3.50;;
10432;SDS011;5263;48.680;9.004;2023-08-20T14:17:07;5.28;;;3.20;;
10432;SDS011;5263;48.680;9.004;2023-08-20T14:19:34;5.05;;;3.95;;
10432;SDS011;5263;48.680;9.004;2023-08-20T14:21:59;6.40;;;4.68;;
10432;SDS011;5263;48.680;9.004;2023-08-20T14:24:25;5.05;;;4.05;;
10432;SDS011;5263;48.680;9.004;2023-08-20T14:26:50;6.20;;;3.97;;
10432;SDS011;5263;48.680;9.004;2023-08-20T14:29:16;4.32;;;4.00;;
10432;SDS011;5263;48.680;9.004;2023-08-20T14:31:42;6.68;;;4.55;;
10432;SDS011;5263;48.680;9.004;2023-08-20T14:34:07;5.85;;;4.60;;
10432;SDS011;5263;48.680;9.004;2023-08-20T14:36:33;4.65;;;3.65;;
10432;SDS011;5263;48.680;9.004;2023-08-20T14:38:59;4.97;;;3.90;;
10432;SDS011;5263;48.680;9.004;2023-08-20T14:41:24;5.03;;;4.10;;
10432;SDS011;5263;48.680;9.004;2023-08-20T14:43:50;3.42;;;3.13;;
10432;SDS011;5263;48.680;9.004;2023-08-20T14:46:16;4.50;;;4.10;;
10432;SDS011;5263;48.680;9.004;2023-08-20T14:48:41;5.13;;;4.10;;
10432;SDS011;5263;48.680;9.004;2023-08-20T14:51:08;5.50;;;4.18;;
10432;SDS011;5263;48.680;9.004;2023-08-20T14:53:34;5.47;;;3.55;;
10432;SDS011;5263;48.680;9.004;2023-08-20T14:55:59;5.95;;;4.45;;
10432;SDS011;5263;48.680;9.004;2023-08-20T14:58:25;4.38;;;3.40;;
10432;SDS011;5263;48.680;9.004;2023-08-20T15:00:51;3.72;;;3.53;;
10432;SDS011;5263;48.680;9.004;2023-08-20T15:03:16;8.57;;;3.53;;
10432;SDS011;5263;48.680;9.004;2023-08-20T15:05:42;8.88;;;3.95;;
10432;SDS011;5263;48.680;9.004;2023-08-20T15:08:07;3.63;;;3.40;;
10432;SDS011;5263;48.680;9.004;2023-08-20T15:10:33;6.68;;;3.67;;
10432;SDS011;5263;48.680;9.004;2023-08-20T15:12:58;3.83;;;3.05;;
10432;SDS011;5263;48.680;9.004;2023-08-20T15:15:24;5.18;;;3.85;;